sensor_id;sensor_type;location;lat;lon;timestamp;P1;durP1;ratioP1;P2;durP2;ratioP2
26325;SDS011;14032;52.510;7.342;2022-10-31T00:00:44;47.35;;;25.88;;
26325;SDS011;14032;52.510;7.342;2022-10-31T00:03:10;42.50;;;23.92;;
26325;SDS011;14032;52.510;7.342;2022-10-31T00:05:36;42.15;;;23.85;;
26325;SDS011;14032;52.510;7.342;2022-10-31T00:08:05;45.53;;;25.95;;
26325;SDS011;14032;52.510;7.342;2022-10-31T00:10:30;43.45;;;26.25;;
26325;SDS011;14032;52.510;7.342;2022-10-31T00:12:56;43.60;;;24.98;;
26325;SDS011;14032;52.510;7.342;2022-10-31T00:15:21;50.47;;;26.02;;
26325;SDS011;14032;52.510;7.342;2022-10-31T00:17:47;49.70;;;27.95;;
26325;SDS011;14032;52.510;7.342;2022-10-31T00:20:12;48.58;;;26.38;;
26325;SDS011;14032;52.510;7.342;2022-10-31T00:22:38;46.88;;;27.05;;
26325;SDS011;14032;52.510;7.342;2022-10-31T00:25:04;52.78;;;27.00;;
26325;SDS011;14032;52.510;7.342;2022-10-31T00:27:29;47.15;;;27.52;;
26325;SDS011;14032;52.510;7.342;2022-10-31T00:29:55;44.97;;;27.35;;
26325;SDS011;14032;52.510;7.342;2022-10-31T00:32:20;49.80;;;28.70;;
26325;SDS011;14032;52.510;7.342;2022-10-31T00:34:46;50.97;;;28.02;;
26325;SDS011;14032;52.510;7.342;2022-10-31T00:37:11;46.67;;;27.80;;
26325;SDS011;14032;52.510;7.342;2022-10-31T00:39:37;56.70;;;29.13;;
26325;SDS011;14032;52.510;7.342;2022-10-31T00:42:02;50.13;;;29.30;;
26325;SDS011;14032;52.510;7.342;2022-10-31T00:44:28;41.42;;;27.52;;
26325;SDS011;14032;52.510;7.342;2022-10-31T00:46:53;51.47;;;27.83;;
26325;SDS011;14032;52.510;7.342;2022-10-31T00:49:19;46.42;;;26.45;;
26325;SDS011;14032;52.510;7.342;2022-10-31T00:51:44;49.85;;;26.70;;
26325;SDS011;14032;52.510;7.342;2022-10-31T00:54:10;43.35;;;24.83;;
26325;SDS011;14032;52.510;7.342;2022-10-31T00:56:36;41.47;;;26.00;;
26325;SDS011;14032;52.510;7.342;2022-10-31T00:59:01;42.90;;;26.73;;
26325;SDS011;14032;52.510;7.342;2022-10-31T01:01:27;63.25;;;29.15;;
26325;SDS011;14032;52.510;7.342;2022-10-31T01:03:52;45.95;;;27.02;;
26325;SDS011;14032;52.510;7.342;2022-10-31T01:06:18;49.53;;;27.17;;
26325;SDS011;14032;52.510;7.342;2022-10-31T01:08:44;47.33;;;26.88;;
26325;SDS011;14032;52.510;7.342;2022-10-31T01:11:21;48.72;;;27.80;;
26325;SDS011;14032;52.510;7.342;2022-10-31T01:13:52;52.60;;;28.40;;
26325;SDS011;14032;52.510;7.342;2022-10-31T01:16:19;53.03;;;28.75;;
26325;SDS011;14032;52.510;7.342;2022-10-31T01:18:47;47.13;;;28.60;;
26325;SDS011;14032;52.510;7.342;2022-10-31T01:21:14;48.88;;;29.20;;
26325;SDS011;14032;52.510;7.342;2022-10-31T01:23:42;52.95;;;28.80;;
26325;SDS011;14032;52.510;7.342;2022-10-31T01:26:12;53.35;;;27.88;;
26325;SDS011;14032;52.510;7.342;2022-10-31T01:29:13;46.13;;;27.60;;
26325;SDS011;14032;52.510;7.342;2022-10-31T01:31:35;44.53;;;26.88;;
26325;SDS011;14032;52.510;7.342;2022-10-31T01:34:03;51.60;;;26.05;;
26325;SDS011;14032;52.510;7.342;2022-10-31T01:36:36;45.67;;;25.98;;
26325;SDS011;14032;52.510;7.342;2022-10-31T01:39:05;44.05;;;25.83;;
26325;SDS011;14032;52.510;7.342;2022-10-31T01:41:33;43.75;;;26.23;;
26325;SDS011;14032;52.510;7.342;2022-10-31T01:44:02;40.70;;;25.13;;
26325;SDS011;14032;52.510;7.342;2022-10-31T01:49:14;40.03;;;24.77;;
26325;SDS011;14032;52.510;7.342;2022-10-31T01:51:48;40.35;;;24.98;;
26325;SDS011;14032;52.510;7.342;2022-10-31T01:54:21;41.67;;;24.10;;
26325;SDS011;14032;52.510;7.342;2022-10-31T01:56:50;39.88;;;23.73;;
26325;SDS011;14032;52.510;7.342;2022-10-31T01:59:20;42.35;;;24.83;;
26325;SDS011;14032;52.510;7.342;2022-10-31T02:01:47;39.42;;;25.05;;
26325;SDS011;14032;52.510;7.342;2022-10-31T02:04:14;43.50;;;24.48;;
26325;SDS011;14032;52.510;7.342;2022-10-31T02:09:29;47.33;;;25.38;;
26325;SDS011;14032;52.510;7.342;2022-10-31T02:11:57;41.03;;;23.77;;
26325;SDS011;14032;52.510;7.342;2022-10-31T02:14:25;44.85;;;23.38;;
26325;SDS011;14032;52.510;7.342;2022-10-31T02:16:54;43.13;;;25.00;;
26325;SDS011;14032;52.510;7.342;2022-10-31T02:22:51;31.63;;;21.70;;
26325;SDS011;14032;52.510;7.342;2022-10-31T02:35:55;36.13;;;21.95;;
26325;SDS011;14032;52.510;7.342;2022-10-31T02:41:26;43.72;;;23.38;;
26325;SDS011;14032;52.510;7.342;2022-10-31T02:44:11;40.97;;;23.85;;
26325;SDS011;14032;52.510;7.342;2022-10-31T02:47:01;50.17;;;27.05;;
26325;SDS011;14032;52.510;7.342;2022-10-31T02:49:59;56.45;;;29.30;;
26325;SDS011;14032;52.510;7.342;2022-10-31T02:52:27;44.55;;;25.95;;
26325;SDS011;14032;52.510;7.342;2022-10-31T02:54:53;48.55;;;25.55;;
26325;SDS011;14032;52.510;7.342;2022-10-31T02:57:29;37.00;;;19.85;;
26325;SDS011;14032;52.510;7.342;2022-10-31T03:00:06;30.88;;;19.63;;
26325;SDS011;14032;52.510;7.342;2022-10-31T03:02:45;32.88;;;20.10;;
26325;SDS011;14032;52.510;7.342;2022-10-31T03:05:32;30.77;;;19.52;;
26325;SDS011;14032;52.510;7.342;2022-10-31T03:10:58;33.30;;;19.27;;
26325;SDS011;14032;52.510;7.342;2022-10-31T03:16:14;31.58;;;18.77;;
26325;SDS011;14032;52.510;7.342;2022-10-31T03:19:02;35.85;;;21.48;;
26325;SDS011;14032;52.510;7.342;2022-10-31T03:21:42;37.15;;;20.83;;
26325;SDS011;14032;52.510;7.342;2022-10-31T03:24:15;27.38;;;19.35;;
26325;SDS011;14032;52.510;7.342;2022-10-31T03:26:42;31.88;;;20.83;;
26325;SDS011;14032;52.510;7.342;2022-10-31T03:29:13;32.47;;;20.75;;
26325;SDS011;14032;52.510;7.342;2022-10-31T03:31:55;31.80;;;21.63;;
26325;SDS011;14032;52.510;7.342;2022-10-31T03:34:25;39.90;;;23.45;;
26325;SDS011;14032;52.510;7.342;2022-10-31T03:36:53;43.50;;;25.35;;
26325;SDS011;14032;52.510;7.342;2022-10-31T03:39:22;42.80;;;23.55;;
26325;SDS011;14032;52.510;7.342;2022-10-31T03:42:21;40.67;;;23.35;;
26325;SDS011;14032;52.510;7.342;2022-10-31T03:44:44;32.83;;;22.10;;
26325;SDS011;14032;52.510;7.342;2022-10-31T03:47:14;37.95;;;22.75;;
26325;SDS011;14032;52.510;7.342;2022-10-31T03:49:41;38.88;;;22.63;;
26325;SDS011;14032;52.510;7.342;2022-10-31T03:52:16;36.30;;;23.38;;
26325;SDS011;14032;52.510;7.342;2022-10-31T03:55:00;36.97;;;22.25;;
26325;SDS011;14032;52.510;7.342;2022-10-31T03:57:35;31.05;;;21.27;;
26325;SDS011;14032;52.510;7.342;2022-10-31T04:00:07;35.58;;;21.50;;
26325;SDS011;14032;52.510;7.342;2022-10-31T04:02:36;32.83;;;21.75;;
26325;SDS011;14032;52.510;7.342;2022-10-31T04:05:06;37.80;;;21.42;;
26325;SDS011;14032;52.510;7.342;2022-10-31T04:07:35;36.08;;;20.45;;
26325;SDS011;14032;52.510;7.342;2022-10-31T04:10:04;33.35;;;20.60;;
26325;SDS011;14032;52.510;7.342;2022-10-31T04:12:34;36.00;;;21.98;;
26325;SDS011;14032;52.510;7.342;2022-10-31T04:15:03;33.63;;;21.58;;
26325;SDS011;14032;52.510;7.342;2022-10-31T04:17:31;30.83;;;20.42;;
26325;SDS011;14032;52.510;7.342;2022-10-31T04:20:01;30.70;;;20.23;;
26325;SDS011;14032;52.510;7.342;2022-10-31T04:22:27;38.97;;;22.40;;
26325;SDS011;14032;52.510;7.342;2022-10-31T04:24:52;30.02;;;19.20;;
26325;SDS011;14032;52.510;7.342;2022-10-31T04:27:18;36.03;;;21.17;;
26325;SDS011;14032;52.510;7.342;2022-10-31T04:29:43;33.88;;;21.80;;
26325;SDS011;14032;52.510;7.342;2022-10-31T04:32:09;33.17;;;22.20;;
26325;SDS011;14032;52.510;7.342;2022-10-31T04:34:34;34.03;;;22.17;;
26325;SDS011;14032;52.510;7.342;2022-10-31T04:37:00;35.35;;;21.95;;
26325;SDS011;14032;52.510;7.342;2022-10-31T04:39:25;31.48;;;21.48;;
26325;SDS011;14032;52.510;7.342;2022-10-31T04:41:51;34.53;;;21.75;;
26325;SDS011;14032;52.510;7.342;2022-10-31T04:44:16;37.78;;;22.23;;
26325;SDS011;14032;52.510;7.342;2022-10-31T04:46:42;31.92;;;23.10;;
26325;SDS011;14032;52.510;7.342;2022-10-31T04:49:08;35.92;;;21.58;;
26325;SDS011;14032;52.510;7.342;2022-10-31T04:51:33;29.95;;;20.67;;
26325;SDS011;14032;52.510;7.342;2022-10-31T04:53:59;36.40;;;22.90;;
26325;SDS011;14032;52.510;7.342;2022-10-31T04:56:24;32.65;;;21.67;;
26325;SDS011;14032;52.510;7.342;2022-10-31T04:58:50;32.60;;;22.60;;
26325;SDS011;14032;52.510;7.342;2022-10-31T05:01:16;34.30;;;22.13;;
26325;SDS011;14032;52.510;7.342;2022-10-31T05:03:41;31.83;;;22.27;;
26325;SDS011;14032;52.510;7.342;2022-10-31T05:06:07;34.63;;;23.50;;
26325;SDS011;14032;52.510;7.342;2022-10-31T05:08:33;37.70;;;24.13;;
26325;SDS011;14032;52.510;7.342;2022-10-31T05:11:02;33.67;;;22.58;;
26325;SDS011;14032;52.510;7.342;2022-10-31T05:13:28;35.83;;;23.52;;
26325;SDS011;14032;52.510;7.342;2022-10-31T05:15:54;33.97;;;23.90;;
26325;SDS011;14032;52.510;7.342;2022-10-31T05:18:20;36.65;;;22.60;;
26325;SDS011;14032;52.510;7.342;2022-10-31T05:20:46;36.13;;;22.33;;
26325;SDS011;14032;52.510;7.342;2022-10-31T05:23:11;33.20;;;20.95;;
26325;SDS011;14032;52.510;7.342;2022-10-31T05:25:39;30.10;;;21.63;;
26325;SDS011;14032;52.510;7.342;2022-10-31T05:28:05;33.05;;;20.83;;
26325;SDS011;14032;52.510;7.342;2022-10-31T05:30:31;39.00;;;25.42;;
26325;SDS011;14032;52.510;7.342;2022-10-31T05:32:57;33.05;;;22.98;;
26325;SDS011;14032;52.510;7.342;2022-10-31T05:35:30;39.33;;;24.73;;
26325;SDS011;14032;52.510;7.342;2022-10-31T05:37:57;40.92;;;24.25;;
26325;SDS011;14032;52.510;7.342;2022-10-31T05:40:24;38.97;;;23.80;;
26325;SDS011;14032;52.510;7.342;2022-10-31T05:42:51;37.80;;;25.33;;
26325;SDS011;14032;52.510;7.342;2022-10-31T05:45:18;37.65;;;23.20;;
26325;SDS011;14032;52.510;7.342;2022-10-31T05:47:51;35.47;;;23.23;;
26325;SDS011;14032;52.510;7.342;2022-10-31T05:50:21;38.35;;;26.05;;
26325;SDS011;14032;52.510;7.342;2022-10-31T05:52:53;36.95;;;25.08;;
26325;SDS011;14032;52.510;7.342;2022-10-31T05:57:51;37.55;;;24.15;;
26325;SDS011;14032;52.510;7.342;2022-10-31T06:00:17;36.88;;;24.23;;
26325;SDS011;14032;52.510;7.342;2022-10-31T06:02:43;39.95;;;23.73;;
26325;SDS011;14032;52.510;7.342;2022-10-31T06:05:09;35.70;;;23.27;;
26325;SDS011;14032;52.510;7.342;2022-10-31T06:07:34;38.60;;;23.85;;
26325;SDS011;14032;52.510;7.342;2022-10-31T06:10:02;36.45;;;22.60;;
26325;SDS011;14032;52.510;7.342;2022-10-31T06:12:29;32.22;;;21.42;;
26325;SDS011;14032;52.510;7.342;2022-10-31T06:14:55;32.30;;;21.85;;
26325;SDS011;14032;52.510;7.342;2022-10-31T06:17:20;32.50;;;21.80;;
26325;SDS011;14032;52.510;7.342;2022-10-31T06:19:46;33.40;;;22.17;;
26325;SDS011;14032;52.510;7.342;2022-10-31T06:22:11;39.25;;;22.63;;
26325;SDS011;14032;52.510;7.342;2022-10-31T06:24:37;38.55;;;24.45;;
26325;SDS011;14032;52.510;7.342;2022-10-31T06:27:03;43.90;;;24.35;;
26325;SDS011;14032;52.510;7.342;2022-10-31T06:29:29;41.70;;;26.40;;
26325;SDS011;14032;52.510;7.342;2022-10-31T06:31:55;40.53;;;24.85;;
26325;SDS011;14032;52.510;7.342;2022-10-31T06:34:21;37.42;;;24.77;;
26325;SDS011;14032;52.510;7.342;2022-10-31T06:36:46;37.65;;;23.02;;
26325;SDS011;14032;52.510;7.342;2022-10-31T06:39:12;32.83;;;22.25;;
26325;SDS011;14032;52.510;7.342;2022-10-31T06:41:38;32.83;;;22.08;;
26325;SDS011;14032;52.510;7.342;2022-10-31T06:44:05;35.67;;;22.73;;
26325;SDS011;14032;52.510;7.342;2022-10-31T06:46:31;36.50;;;22.92;;
26325;SDS011;14032;52.510;7.342;2022-10-31T06:48:57;35.53;;;22.10;;
26325;SDS011;14032;52.510;7.342;2022-10-31T06:51:22;35.97;;;23.02;;
26325;SDS011;14032;52.510;7.342;2022-10-31T06:53:48;38.50;;;23.73;;
26325;SDS011;14032;52.510;7.342;2022-10-31T06:56:13;39.40;;;24.92;;
26325;SDS011;14032;52.510;7.342;2022-10-31T06:58:39;39.70;;;24.25;;
26325;SDS011;14032;52.510;7.342;2022-10-31T07:01:05;35.42;;;21.80;;
26325;SDS011;14032;52.510;7.342;2022-10-31T07:03:30;38.38;;;23.65;;
26325;SDS011;14032;52.510;7.342;2022-10-31T07:05:56;33.75;;;21.20;;
26325;SDS011;14032;52.510;7.342;2022-10-31T07:08:22;40.55;;;23.25;;
26325;SDS011;14032;52.510;7.342;2022-10-31T07:10:51;35.40;;;22.83;;
26325;SDS011;14032;52.510;7.342;2022-10-31T07:13:18;39.05;;;24.83;;
26325;SDS011;14032;52.510;7.342;2022-10-31T07:15:49;40.78;;;24.70;;
26325;SDS011;14032;52.510;7.342;2022-10-31T07:18:16;32.80;;;23.05;;
26325;SDS011;14032;52.510;7.342;2022-10-31T07:20:41;35.95;;;23.52;;
26325;SDS011;14032;52.510;7.342;2022-10-31T07:23:08;42.17;;;25.35;;
26325;SDS011;14032;52.510;7.342;2022-10-31T07:25:34;36.95;;;24.73;;
26325;SDS011;14032;52.510;7.342;2022-10-31T07:28:00;39.33;;;24.52;;
26325;SDS011;14032;52.510;7.342;2022-10-31T07:30:26;35.90;;;24.80;;
26325;SDS011;14032;52.510;7.342;2022-10-31T07:32:51;37.13;;;24.50;;
26325;SDS011;14032;52.510;7.342;2022-10-31T07:35:18;43.50;;;27.20;;
26325;SDS011;14032;52.510;7.342;2022-10-31T07:37:49;33.65;;;23.85;;
26325;SDS011;14032;52.510;7.342;2022-10-31T07:40:15;36.95;;;24.45;;
26325;SDS011;14032;52.510;7.342;2022-10-31T07:42:42;38.33;;;25.85;;
26325;SDS011;14032;52.510;7.342;2022-10-31T07:45:10;36.45;;;24.00;;
26325;SDS011;14032;52.510;7.342;2022-10-31T07:47:38;38.08;;;24.05;;
26325;SDS011;14032;52.510;7.342;2022-10-31T07:50:07;38.97;;;24.33;;
26325;SDS011;14032;52.510;7.342;2022-10-31T07:52:34;32.20;;;20.98;;
26325;SDS011;14032;52.510;7.342;2022-10-31T07:55:00;38.92;;;25.70;;
26325;SDS011;14032;52.510;7.342;2022-10-31T07:57:26;42.05;;;26.13;;
26325;SDS011;14032;52.510;7.342;2022-10-31T07:59:51;39.28;;;25.88;;
26325;SDS011;14032;52.510;7.342;2022-10-31T08:02:17;42.42;;;25.90;;
26325;SDS011;14032;52.510;7.342;2022-10-31T08:04:45;37.63;;;24.77;;
26325;SDS011;14032;52.510;7.342;2022-10-31T08:07:10;36.30;;;24.25;;
26325;SDS011;14032;52.510;7.342;2022-10-31T08:09:36;43.20;;;26.27;;
26325;SDS011;14032;52.510;7.342;2022-10-31T08:12:01;42.35;;;25.42;;
26325;SDS011;14032;52.510;7.342;2022-10-31T08:14:27;30.55;;;21.63;;
26325;SDS011;14032;52.510;7.342;2022-10-31T08:16:53;35.97;;;24.65;;
26325;SDS011;14032;52.510;7.342;2022-10-31T08:19:19;40.28;;;24.45;;
26325;SDS011;14032;52.510;7.342;2022-10-31T08:21:45;39.88;;;25.33;;
26325;SDS011;14032;52.510;7.342;2022-10-31T08:24:10;38.60;;;24.08;;
26325;SDS011;14032;52.510;7.342;2022-10-31T08:26:36;35.22;;;22.67;;
26325;SDS011;14032;52.510;7.342;2022-10-31T08:29:02;44.40;;;25.52;;
26325;SDS011;14032;52.510;7.342;2022-10-31T08:31:28;35.97;;;24.25;;
26325;SDS011;14032;52.510;7.342;2022-10-31T08:33:54;40.47;;;24.88;;
26325;SDS011;14032;52.510;7.342;2022-10-31T08:36:20;35.40;;;23.58;;
26325;SDS011;14032;52.510;7.342;2022-10-31T08:38:48;35.53;;;23.17;;
26325;SDS011;14032;52.510;7.342;2022-10-31T08:41:14;35.65;;;23.95;;
26325;SDS011;14032;52.510;7.342;2022-10-31T08:43:40;40.55;;;22.95;;
26325;SDS011;14032;52.510;7.342;2022-10-31T08:46:05;41.53;;;25.48;;
26325;SDS011;14032;52.510;7.342;2022-10-31T08:48:31;42.58;;;24.38;;
26325;SDS011;14032;52.510;7.342;2022-10-31T08:50:57;42.92;;;25.38;;
26325;SDS011;14032;52.510;7.342;2022-10-31T08:53:24;38.35;;;24.27;;
26325;SDS011;14032;52.510;7.342;2022-10-31T08:55:53;33.83;;;22.60;;
26325;SDS011;14032;52.510;7.342;2022-10-31T08:58:20;45.58;;;25.92;;
26325;SDS011;14032;52.510;7.342;2022-10-31T09:00:47;40.38;;;23.23;;
26325;SDS011;14032;52.510;7.342;2022-10-31T09:03:14;31.45;;;22.92;;
26325;SDS011;14032;52.510;7.342;2022-10-31T09:05:42;31.45;;;21.77;;
26325;SDS011;14032;52.510;7.342;2022-10-31T09:08:08;40.75;;;23.55;;
26325;SDS011;14032;52.510;7.342;2022-10-31T09:10:35;31.58;;;22.60;;
26325;SDS011;14032;52.510;7.342;2022-10-31T09:13:20;34.40;;;23.10;;
26325;SDS011;14032;52.510;7.342;2022-10-31T09:15:47;33.90;;;22.30;;
26325;SDS011;14032;52.510;7.342;2022-10-31T09:18:14;36.50;;;23.55;;
26325;SDS011;14032;52.510;7.342;2022-10-31T09:20:41;32.88;;;21.30;;
26325;SDS011;14032;52.510;7.342;2022-10-31T09:23:12;34.45;;;22.25;;
26325;SDS011;14032;52.510;7.342;2022-10-31T09:25:40;32.17;;;20.27;;
26325;SDS011;14032;52.510;7.342;2022-10-31T09:28:08;35.58;;;20.98;;
26325;SDS011;14032;52.510;7.342;2022-10-31T09:30:36;39.30;;;20.70;;
26325;SDS011;14032;52.510;7.342;2022-10-31T09:33:05;32.83;;;21.25;;
26325;SDS011;14032;52.510;7.342;2022-10-31T09:35:34;42.13;;;23.67;;
26325;SDS011;14032;52.510;7.342;2022-10-31T09:38:04;35.33;;;22.88;;
26325;SDS011;14032;52.510;7.342;2022-10-31T09:46:49;31.60;;;19.80;;
26325;SDS011;14032;52.510;7.342;2022-10-31T09:52:44;24.67;;;17.10;;
26325;SDS011;14032;52.510;7.342;2022-10-31T09:55:37;24.58;;;15.68;;
26325;SDS011;14032;52.510;7.342;2022-10-31T09:58:05;25.27;;;16.65;;
26325;SDS011;14032;52.510;7.342;2022-10-31T10:00:40;30.65;;;18.48;;
26325;SDS011;14032;52.510;7.342;2022-10-31T10:03:11;29.92;;;16.52;;
26325;SDS011;14032;52.510;7.342;2022-10-31T10:05:56;27.27;;;17.70;;
26325;SDS011;14032;52.510;7.342;2022-10-31T10:08:25;23.45;;;15.98;;
26325;SDS011;14032;52.510;7.342;2022-10-31T10:10:56;23.23;;;16.25;;
26325;SDS011;14032;52.510;7.342;2022-10-31T10:27:22;26.23;;;13.55;;
26325;SDS011;14032;52.510;7.342;2022-10-31T10:32:51;19.98;;;11.40;;
26325;SDS011;14032;52.510;7.342;2022-10-31T10:37:55;17.83;;;12.10;;
26325;SDS011;14032;52.510;7.342;2022-10-31T10:40:25;17.80;;;11.23;;
26325;SDS011;14032;52.510;7.342;2022-10-31T10:43:10;16.33;;;10.07;;
26325;SDS011;14032;52.510;7.342;2022-10-31T10:45:44;18.67;;;12.15;;
26325;SDS011;14032;52.510;7.342;2022-10-31T10:48:49;20.23;;;12.95;;
26325;SDS011;14032;52.510;7.342;2022-10-31T10:51:20;19.77;;;11.65;;
26325;SDS011;14032;52.510;7.342;2022-10-31T10:56:39;15.55;;;11.27;;
26325;SDS011;14032;52.510;7.342;2022-10-31T10:59:16;13.98;;;9.48;;
26325;SDS011;14032;52.510;7.342;2022-10-31T11:01:44;15.50;;;11.27;;
26325;SDS011;14032;52.510;7.342;2022-10-31T11:09:26;18.50;;;10.65;;
26325;SDS011;14032;52.510;7.342;2022-10-31T11:11:52;20.48;;;11.88;;
26325;SDS011;14032;52.510;7.342;2022-10-31T11:14:20;17.63;;;11.50;;
26325;SDS011;14032;52.510;7.342;2022-10-31T11:16:47;20.80;;;13.13;;
26325;SDS011;14032;52.510;7.342;2022-10-31T11:19:17;18.98;;;12.75;;
26325;SDS011;14032;52.510;7.342;2022-10-31T11:21:53;23.23;;;14.25;;
26325;SDS011;14032;52.510;7.342;2022-10-31T11:24:30;21.13;;;14.45;;
26325;SDS011;14032;52.510;7.342;2022-10-31T11:27:15;24.05;;;15.57;;
26325;SDS011;14032;52.510;7.342;2022-10-31T11:29:45;20.13;;;14.80;;
26325;SDS011;14032;52.510;7.342;2022-10-31T11:32:21;24.17;;;15.60;;
26325;SDS011;14032;52.510;7.342;2022-10-31T11:34:56;23.17;;;16.55;;
26325;SDS011;14032;52.510;7.342;2022-10-31T11:37:32;21.90;;;15.43;;
26325;SDS011;14032;52.510;7.342;2022-10-31T11:40:05;22.00;;;17.05;;
26325;SDS011;14032;52.510;7.342;2022-10-31T11:42:36;26.15;;;17.20;;
26325;SDS011;14032;52.510;7.342;2022-10-31T11:45:13;23.58;;;17.33;;
26325;SDS011;14032;52.510;7.342;2022-10-31T11:47:55;24.27;;;16.23;;
26325;SDS011;14032;52.510;7.342;2022-10-31T11:50:22;28.30;;;17.02;;
26325;SDS011;14032;52.510;7.342;2022-10-31T11:53:01;26.95;;;16.13;;
26325;SDS011;14032;52.510;7.342;2022-10-31T11:55:36;24.33;;;16.60;;
26325;SDS011;14032;52.510;7.342;2022-10-31T11:58:03;23.93;;;15.53;;
26325;SDS011;14032;52.510;7.342;2022-10-31T12:00:30;24.75;;;16.25;;
26325;SDS011;14032;52.510;7.342;2022-10-31T12:06:15;24.65;;;16.48;;
26325;SDS011;14032;52.510;7.342;2022-10-31T12:08:47;22.95;;;15.20;;
26325;SDS011;14032;52.510;7.342;2022-10-31T12:13:53;21.77;;;15.70;;
26325;SDS011;14032;52.510;7.342;2022-10-31T12:24:37;24.77;;;14.43;;
26325;SDS011;14032;52.510;7.342;2022-10-31T12:40:47;19.58;;;11.52;;
26325;SDS011;14032;52.510;7.342;2022-10-31T12:43:43;19.88;;;11.45;;
26325;SDS011;14032;52.510;7.342;2022-10-31T12:54:16;19.75;;;11.23;;
26325;SDS011;14032;52.510;7.342;2022-10-31T12:59:28;17.33;;;10.85;;
26325;SDS011;14032;52.510;7.342;2022-10-31T13:02:01;15.00;;;10.32;;
26325;SDS011;14032;52.510;7.342;2022-10-31T13:04:56;18.63;;;11.98;;
26325;SDS011;14032;52.510;7.342;2022-10-31T13:07:43;23.08;;;11.10;;
26325;SDS011;14032;52.510;7.342;2022-10-31T13:10:15;17.65;;;10.85;;
26325;SDS011;14032;52.510;7.342;2022-10-31T13:12:45;17.27;;;11.05;;
26325;SDS011;14032;52.510;7.342;2022-10-31T13:15:24;19.25;;;11.30;;
26325;SDS011;14032;52.510;7.342;2022-10-31T13:18:06;18.30;;;10.90;;
26325;SDS011;14032;52.510;7.342;2022-10-31T13:20:48;16.75;;;11.68;;
26325;SDS011;14032;52.510;7.342;2022-10-31T13:25:51;23.30;;;12.00;;
26325;SDS011;14032;52.510;7.342;2022-10-31T13:31:17;17.70;;;11.63;;
26325;SDS011;14032;52.510;7.342;2022-10-31T13:33:44;20.15;;;13.23;;
26325;SDS011;14032;52.510;7.342;2022-10-31T13:38:59;22.95;;;14.68;;
26325;SDS011;14032;52.510;7.342;2022-10-31T13:44:23;28.63;;;16.88;;
26325;SDS011;14032;52.510;7.342;2022-10-31T13:46:55;29.48;;;16.05;;
26325;SDS011;14032;52.510;7.342;2022-10-31T13:51:47;29.70;;;15.13;;
26325;SDS011;14032;52.510;7.342;2022-10-31T13:54:20;25.80;;;15.40;;
26325;SDS011;14032;52.510;7.342;2022-10-31T13:56:52;26.77;;;15.55;;
26325;SDS011;14032;52.510;7.342;2022-10-31T13:59:25;27.08;;;16.17;;
26325;SDS011;14032;52.510;7.342;2022-10-31T14:01:54;31.85;;;16.20;;
26325;SDS011;14032;52.510;7.342;2022-10-31T14:04:30;26.83;;;16.58;;
26325;SDS011;14032;52.510;7.342;2022-10-31T14:07:08;28.52;;;16.70;;
26325;SDS011;14032;52.510;7.342;2022-10-31T14:17:48;27.63;;;15.43;;
26325;SDS011;14032;52.510;7.342;2022-10-31T14:22:50;25.65;;;15.43;;
26325;SDS011;14032;52.510;7.342;2022-10-31T14:25:33;28.98;;;16.38;;
26325;SDS011;14032;52.510;7.342;2022-10-31T14:28:01;25.13;;;15.82;;
26325;SDS011;14032;52.510;7.342;2022-10-31T14:30:51;25.08;;;14.95;;
26325;SDS011;14032;52.510;7.342;2022-10-31T14:33:19;21.38;;;14.02;;
26325;SDS011;14032;52.510;7.342;2022-10-31T14:38:28;20.52;;;13.32;;
26325;SDS011;14032;52.510;7.342;2022-10-31T14:43:45;26.38;;;13.93;;
26325;SDS011;14032;52.510;7.342;2022-10-31T14:52:36;25.30;;;14.43;;
26325;SDS011;14032;52.510;7.342;2022-10-31T14:55:03;27.27;;;14.73;;
26325;SDS011;14032;52.510;7.342;2022-10-31T14:57:32;22.67;;;14.05;;
26325;SDS011;14032;52.510;7.342;2022-10-31T15:00:02;23.10;;;13.77;;
26325;SDS011;14032;52.510;7.342;2022-10-31T15:02:43;30.05;;;15.60;;
26325;SDS011;14032;52.510;7.342;2022-10-31T15:05:30;24.77;;;14.50;;
26325;SDS011;14032;52.510;7.342;2022-10-31T15:07:59;26.35;;;16.40;;
26325;SDS011;14032;52.510;7.342;2022-10-31T15:15:44;25.67;;;15.13;;
26325;SDS011;14032;52.510;7.342;2022-10-31T15:18:18;25.55;;;15.48;;
26325;SDS011;14032;52.510;7.342;2022-10-31T15:23:15;26.80;;;15.73;;
26325;SDS011;14032;52.510;7.342;2022-10-31T15:25:45;31.77;;;15.98;;
26325;SDS011;14032;52.510;7.342;2022-10-31T15:28:15;24.45;;;14.30;;
26325;SDS011;14032;52.510;7.342;2022-10-31T15:30:52;26.55;;;14.98;;
26325;SDS011;14032;52.510;7.342;2022-10-31T15:33:27;22.67;;;14.68;;
26325;SDS011;14032;52.510;7.342;2022-10-31T15:35:55;24.50;;;14.73;;
26325;SDS011;14032;52.510;7.342;2022-10-31T15:38:25;23.08;;;14.00;;
26325;SDS011;14032;52.510;7.342;2022-10-31T15:40:56;24.73;;;14.48;;
26325;SDS011;14032;52.510;7.342;2022-10-31T15:43:30;22.65;;;13.60;;
26325;SDS011;14032;52.510;7.342;2022-10-31T15:46:00;28.77;;;14.77;;
26325;SDS011;14032;52.510;7.342;2022-10-31T15:48:27;26.90;;;13.95;;
26325;SDS011;14032;52.510;7.342;2022-10-31T15:50:56;25.65;;;13.15;;
26325;SDS011;14032;52.510;7.342;2022-10-31T15:55:53;21.77;;;13.20;;
26325;SDS011;14032;52.510;7.342;2022-10-31T15:58:21;22.95;;;12.57;;
26325;SDS011;14032;52.510;7.342;2022-10-31T16:01:00;25.83;;;13.90;;
26325;SDS011;14032;52.510;7.342;2022-10-31T16:03:29;22.35;;;12.73;;
26325;SDS011;14032;52.510;7.342;2022-10-31T16:05:59;29.95;;;13.18;;
26325;SDS011;14032;52.510;7.342;2022-10-31T16:13:35;24.95;;;14.18;;
26325;SDS011;14032;52.510;7.342;2022-10-31T16:16:12;25.00;;;12.55;;
26325;SDS011;14032;52.510;7.342;2022-10-31T16:18:40;22.73;;;12.63;;
26325;SDS011;14032;52.510;7.342;2022-10-31T16:21:07;24.73;;;12.55;;
26325;SDS011;14032;52.510;7.342;2022-10-31T16:23:33;23.55;;;12.50;;
26325;SDS011;14032;52.510;7.342;2022-10-31T16:26:05;24.85;;;12.82;;
26325;SDS011;14032;52.510;7.342;2022-10-31T16:28:32;23.00;;;11.68;;
26325;SDS011;14032;52.510;7.342;2022-10-31T16:30:58;22.10;;;12.35;;
26325;SDS011;14032;52.510;7.342;2022-10-31T16:38:53;26.33;;;13.10;;
26325;SDS011;14032;52.510;7.342;2022-10-31T16:41:19;26.42;;;13.88;;
26325;SDS011;14032;52.510;7.342;2022-10-31T16:43:46;29.00;;;14.73;;
26325;SDS011;14032;52.510;7.342;2022-10-31T16:46:15;23.73;;;12.95;;
26325;SDS011;14032;52.510;7.342;2022-10-31T16:48:48;29.17;;;14.50;;
26325;SDS011;14032;52.510;7.342;2022-10-31T16:51:13;29.65;;;15.10;;
26325;SDS011;14032;52.510;7.342;2022-10-31T16:53:39;25.45;;;12.93;;
26325;SDS011;14032;52.510;7.342;2022-10-31T16:56:04;29.27;;;14.75;;
26325;SDS011;14032;52.510;7.342;2022-10-31T16:58:38;27.52;;;15.30;;
26325;SDS011;14032;52.510;7.342;2022-10-31T17:01:06;26.98;;;14.73;;
26325;SDS011;14032;52.510;7.342;2022-10-31T17:03:32;33.60;;;15.65;;
26325;SDS011;14032;52.510;7.342;2022-10-31T17:05:58;24.48;;;14.82;;
26325;SDS011;14032;52.510;7.342;2022-10-31T17:08:24;29.80;;;14.98;;
26325;SDS011;14032;52.510;7.342;2022-10-31T17:10:50;29.92;;;16.02;;
26325;SDS011;14032;52.510;7.342;2022-10-31T17:13:19;27.25;;;15.18;;
26325;SDS011;14032;52.510;7.342;2022-10-31T17:15:51;30.98;;;16.30;;
26325;SDS011;14032;52.510;7.342;2022-10-31T17:18:19;33.15;;;15.52;;